createdAt,value
2017-01-01T00:00:19.599Z,27.78
2017-01-01T00:00:47.967Z,27.8
2017-01-01T00:01:16.359Z,27.78
2017-01-01T00:01:44.522Z,27.69
2017-01-01T00:02:12.799Z,27.78
2017-01-01T00:02:40.768Z,27.72
2017-01-01T00:03:08.847Z,27.61
2017-01-01T00:04:19.883Z,27.66
2017-01-01T00:04:47.982Z,27.6
2017-01-01T00:05:16.051Z,27.66
2017-01-01T00:05:44.265Z,27.6
2017-01-01T00:06:12.540Z,27.66
2017-01-01T00:06:40.805Z,27.68
2017-01-01T00:07:09.095Z,27.64
2017-01-01T00:07:37.337Z,27.63
2017-01-01T00:08:05.381Z,27.64
2017-01-01T00:08:33.550Z,27.64
2017-01-01T00:09:01.659Z,27.61
2017-01-01T00:10:13.038Z,27.64
2017-01-01T00:10:41.423Z,27.58
2017-01-01T00:11:09.678Z,27.6
2017-01-01T00:11:37.713Z,27.49
2017-01-01T00:12:05.940Z,27.53
2017-01-01T00:12:34.171Z,27.45
2017-01-01T00:13:02.299Z,27.42
2017-01-01T00:13:30.686Z,27.38
2017-01-01T00:13:58.726Z,27.4
2017-01-01T00:14:26.862Z,27.41
2017-01-01T00:14:55.021Z,27.45
2017-01-01T00:16:06.401Z,27.38
2017-01-01T00:16:34.597Z,27.41
2017-01-01T00:17:02.880Z,27.45
2017-01-01T00:17:30.850Z,27.49
2017-01-01T00:17:58.984Z,27.5
2017-01-01T00:18:27.137Z,27.5
2017-01-01T00:18:55.482Z,27.44
2017-01-01T00:19:23.545Z,27.52
2017-01-01T00:19:51.761Z,27.54
2017-01-01T00:20:19.972Z,27.5
2017-01-01T00:20:48.147Z,27.5
2017-01-01T00:21:59.432Z,27.47
2017-01-01T00:22:27.625Z,27.52
2017-01-01T00:22:55.876Z,27.52
2017-01-01T00:23:24.081Z,27.53
2017-01-01T00:23:52.306Z,27.45
2017-01-01T00:24:20.443Z,27.47
2017-01-01T00:24:48.550Z,27.41
2017-01-01T00:25:16.614Z,27.5
2017-01-01T00:25:44.742Z,27.53
2017-01-01T00:26:12.874Z,27.49
2017-01-01T00:26:41.141Z,27.45
2017-01-01T00:27:52.243Z,27.45
2017-01-01T00:28:20.353Z,27.42
2017-01-01T00:28:48.419Z,27.35
2017-01-01T00:29:16.716Z,27.4
2017-01-01T00:29:44.757Z,27.34
2017-01-01T00:30:12.988Z,27.26
2017-01-01T00:30:41.374Z,27.31
2017-01-01T00:31:09.715Z,27.2
2017-01-01T00:31:37.662Z,27.26
2017-01-01T00:32:05.697Z,27.34
2017-01-01T00:32:33.873Z,27.22
2017-01-01T00:33:45.057Z,27.31
2017-01-01T00:34:13.158Z,27.27
2017-01-01T00:34:41.224Z,27.31
2017-01-01T00:35:09.519Z,27.23
2017-01-01T00:35:37.744Z,27.3
2017-01-01T00:36:05.878Z,27.19
2017-01-01T00:36:34.073Z,27.25
2017-01-01T00:37:02.321Z,27.17
2017-01-01T00:37:30.362Z,27.16
2017-01-01T00:37:58.669Z,27.26
2017-01-01T00:38:26.752Z,27.23
2017-01-01T00:39:37.850Z,27.26
2017-01-01T00:40:05.852Z,27.23
2017-01-01T00:40:33.923Z,27.25
2017-01-01T00:41:02.038Z,27.3
2017-01-01T00:41:30.359Z,27.3
2017-01-01T00:41:58.624Z,27.31
2017-01-01T00:42:26.907Z,27.26
2017-01-01T00:42:55.160Z,27.31
2017-01-01T00:43:23.294Z,27.31
2017-01-01T00:43:51.505Z,27.25
2017-01-01T00:44:19.581Z,27.26
2017-01-01T00:45:30.963Z,27.23
2017-01-01T00:45:59.252Z,27.27
2017-01-01T00:46:27.321Z,27.37
2017-01-01T00:46:55.531Z,27.22
2017-01-01T00:47:23.754Z,27.26
2017-01-01T00:47:51.894Z,27.23
2017-01-01T00:48:20.183Z,27.25
2017-01-01T00:48:48.343Z,27.17
2017-01-01T00:49:16.480Z,27.17
2017-01-01T00:49:44.694Z,27.27
2017-01-01T00:50:12.874Z,27.44
2017-01-01T00:51:24.065Z,27.57
2017-01-01T00:51:52.348Z,27.64
2017-01-01T00:52:20.416Z,27.53
2017-01-01T00:52:48.621Z,27.63
2017-01-01T00:53:16.753Z,27.68
2017-01-01T00:53:44.987Z,27.75
2017-01-01T00:54:13.368Z,27.93
2017-01-01T00:54:41.528Z,28.03
2017-01-01T00:55:09.847Z,28.2
2017-01-01T00:55:38.056Z,28.31
2017-01-01T00:56:06.326Z,28.65
2017-01-01T00:57:17.608Z,29.13
2017-01-01T00:57:45.709Z,29.22
2017-01-01T00:58:13.974Z,29.17
2017-01-01T00:58:42.272Z,29.03
2017-01-01T00:59:10.540Z,28.91
2017-01-01T00:59:38.711Z,28.87
2017-01-01T01:00:07.092Z,28.65
2017-01-01T01:00:35.351Z,28.42
2017-01-01T01:01:03.570Z,28.32
2017-01-01T01:01:31.877Z,28.27
2017-01-01T01:01:59.965Z,28.13
2017-01-01T01:03:11.154Z,27.87
2017-01-01T01:03:39.258Z,27.79
2017-01-01T01:04:07.334Z,27.76
2017-01-01T01:04:35.538Z,27.72
2017-01-01T01:05:03.581Z,27.61
2017-01-01T01:05:31.718Z,27.6
2017-01-01T01:05:59.924Z,27.63
2017-01-01T01:06:28.174Z,27.61
2017-01-01T01:06:56.215Z,27.57
2017-01-01T01:07:24.337Z,27.42
2017-01-01T01:07:52.701Z,27.45
2017-01-01T01:09:04.071Z,27.35
2017-01-01T01:09:32.359Z,27.27
2017-01-01T01:10:00.527Z,27.32
2017-01-01T01:10:28.733Z,27.19
2017-01-01T01:10:56.956Z,27.34
2017-01-01T01:11:25.066Z,27.26
2017-01-01T01:11:53.359Z,27.34
2017-01-01T01:12:21.336Z,27.42
2017-01-01T01:12:49.467Z,27.31
2017-01-01T01:13:17.694Z,27.25
2017-01-01T01:13:45.793Z,27.23
2017-01-01T01:14:57.075Z,27.16
2017-01-01T01:15:25.268Z,27.07
2017-01-01T01:15:53.434Z,26.93
2017-01-01T01:16:21.636Z,26.76
2017-01-01T01:16:49.859Z,26.6
2017-01-01T01:17:17.817Z,26.43
2017-01-01T01:17:46.108Z,26.41
2017-01-01T01:18:14.455Z,26.27
2017-01-01T01:18:42.773Z,26.26
2017-01-01T01:19:10.894Z,26.11
2017-01-01T01:19:39.255Z,26.04
2017-01-01T01:20:50.356Z,25.98
2017-01-01T01:21:18.551Z,25.95
2017-01-01T01:21:46.892Z,25.83
2017-01-01T01:22:14.905Z,25.83
2017-01-01T01:22:42.948Z,25.83
2017-01-01T01:23:11.175Z,25.88
2017-01-01T01:23:39.368Z,25.9
2017-01-01T01:24:07.527Z,25.89
2017-01-01T01:24:35.661Z,25.96
2017-01-01T01:25:03.880Z,25.82
2017-01-01T01:25:32.149Z,25.83
2017-01-01T01:26:43.344Z,25.75
2017-01-01T01:27:11.443Z,25.7
2017-01-01T01:27:39.607Z,25.61
2017-01-01T01:28:07.903Z,25.53
2017-01-01T01:28:36.133Z,25.56
2017-01-01T01:29:04.365Z,25.61
2017-01-01T01:29:32.557Z,25.55
2017-01-01T01:30:00.719Z,25.55
2017-01-01T01:30:28.855Z,25.56
2017-01-01T01:30:57.068Z,25.55
2017-01-01T01:31:25.239Z,25.63
2017-01-01T01:32:36.425Z,25.63
2017-01-01T01:33:04.615Z,25.58
2017-01-01T01:33:32.776Z,25.58
2017-01-01T01:34:00.983Z,25.56
2017-01-01T01:34:29.303Z,25.63
2017-01-01T01:34:57.435Z,25.55
2017-01-01T01:35:25.634Z,25.4
2017-01-01T01:35:53.883Z,25.43
2017-01-01T01:36:22.017Z,25.49
2017-01-01T01:36:50.047Z,25.37
2017-01-01T01:37:18.217Z,25.37
2017-01-01T01:38:29.313Z,25.4
2017-01-01T01:38:57.411Z,25.3
2017-01-01T01:39:25.569Z,25.33
2017-01-01T01:39:53.677Z,25.31
2017-01-01T01:40:21.814Z,25.27
2017-01-01T01:40:49.946Z,25.22
2017-01-01T01:41:18.240Z,25.23
2017-01-01T01:41:46.489Z,25.19
2017-01-01T01:42:14.554Z,25.15
2017-01-01T01:42:42.485Z,25.14
2017-01-01T01:43:10.471Z,25.08
2017-01-01T01:44:21.656Z,25.15
2017-01-01T01:44:49.761Z,25.14
2017-01-01T01:45:17.651Z,25.06
2017-01-01T01:45:45.580Z,25.06
2017-01-01T01:46:13.710Z,25.15
2017-01-01T01:46:41.937Z,25.11
2017-01-01T01:47:10.130Z,25
2017-01-01T01:47:38.191Z,25.04
2017-01-01T01:48:06.414Z,25.09
2017-01-01T01:48:34.624Z,24.94
2017-01-01T01:49:02.892Z,25.09
2017-01-01T01:50:14.169Z,25.11
2017-01-01T01:50:42.265Z,25
2017-01-01T01:51:10.244Z,25.04
2017-01-01T01:51:38.451Z,25.14
2017-01-01T01:52:06.773Z,25.08
2017-01-01T01:52:34.999Z,25
2017-01-01T01:53:03.289Z,25.16
2017-01-01T01:53:31.539Z,25.08
2017-01-01T01:53:59.668Z,25
2017-01-01T01:54:27.880Z,25.08
2017-01-01T01:54:55.874Z,25.04
2017-01-01T01:56:07.249Z,25.03
2017-01-01T01:56:35.439Z,25.08
2017-01-01T01:57:03.604Z,25.11
2017-01-01T01:57:31.703Z,25.04
2017-01-01T01:58:00.023Z,25.08
2017-01-01T01:58:28.252Z,25.08
2017-01-01T01:58:56.632Z,25.04
2017-01-01T01:59:24.784Z,25.09
2017-01-01T01:59:52.823Z,25.08
2017-01-01T02:00:20.757Z,25.01
2017-01-01T02:00:48.929Z,25.09
2017-01-01T02:02:00.215Z,25.04
2017-01-01T02:02:28.502Z,25.09
2017-01-01T02:02:56.753Z,25.06
2017-01-01T02:03:24.960Z,25.09
2017-01-01T02:03:53.098Z,25
2017-01-01T02:04:21.145Z,25.08
2017-01-01T02:04:49.431Z,25.06
2017-01-01T02:05:17.588Z,25.01
2017-01-01T02:05:45.721Z,25.04
2017-01-01T02:06:14.033Z,25.08
2017-01-01T02:06:42.305Z,25.06
2017-01-01T02:07:53.676Z,25.08
2017-01-01T02:08:21.966Z,25.16
2017-01-01T02:08:50.125Z,25.26
2017-01-01T02:09:18.233Z,25.31
2017-01-01T02:09:46.460Z,25.28
2017-01-01T02:10:14.454Z,25.28
2017-01-01T02:10:42.648Z,25.33
2017-01-01T02:11:10.998Z,25.36
2017-01-01T02:11:39.126Z,25.3
2017-01-01T02:12:07.431Z,25.28
2017-01-01T02:12:35.702Z,25.33
2017-01-01T02:13:46.891Z,25.34
2017-01-01T02:14:15.202Z,25.28
2017-01-01T02:14:43.551Z,25.33
2017-01-01T02:15:11.566Z,25.26
2017-01-01T02:15:39.886Z,25.28
2017-01-01T02:16:07.933Z,25.27
2017-01-01T02:16:36.226Z,25.19
2017-01-01T02:17:04.478Z,25.22
2017-01-01T02:17:32.611Z,25.21
2017-01-01T02:18:00.641Z,25.16
2017-01-01T02:18:28.817Z,25.26
2017-01-01T02:19:40.011Z,25.11
2017-01-01T02:20:08.300Z,25.11
2017-01-01T02:20:36.458Z,25.11
2017-01-01T02:21:04.660Z,25.08
2017-01-01T02:21:32.791Z,25.12
2017-01-01T02:22:01.030Z,25.08
2017-01-01T02:22:29.411Z,25.11
2017-01-01T02:22:57.603Z,24.99
2017-01-01T02:23:25.925Z,25.11
2017-01-01T02:23:54.137Z,25.11
2017-01-01T02:24:22.309Z,25.08
2017-01-01T02:25:33.409Z,25.08
2017-01-01T02:26:01.507Z,25.08
2017-01-01T02:26:29.759Z,25.15
2017-01-01T02:26:57.967Z,25.04
2017-01-01T02:27:26.194Z,25.04
2017-01-01T02:27:54.523Z,25
2017-01-01T02:28:22.813Z,25.01
2017-01-01T02:28:51.160Z,25.09
2017-01-01T02:29:19.388Z,25.03
2017-01-01T02:29:47.507Z,25
2017-01-01T02:30:15.685Z,24.91
2017-01-01T02:31:26.781Z,24.91
2017-01-01T02:31:55.072Z,25
2017-01-01T02:32:23.327Z,24.91
2017-01-01T02:32:51.531Z,24.97
2017-01-01T02:33:19.756Z,24.9
2017-01-01T02:33:47.801Z,25
2017-01-01T02:34:16.181Z,25
2017-01-01T02:34:44.524Z,25.06
2017-01-01T02:35:12.746Z,25.01
2017-01-01T02:35:40.867Z,25.09
2017-01-01T02:36:08.861Z,25.16
2017-01-01T02:37:20.033Z,25.08
2017-01-01T02:37:48.131Z,25.14
2017-01-01T02:38:16.289Z,25.22
2017-01-01T02:38:44.489Z,25.26
2017-01-01T02:39:12.526Z,25.23
2017-01-01T02:39:40.660Z,25.3
2017-01-01T02:40:08.942Z,25.3
2017-01-01T02:40:37.003Z,25.31
2017-01-01T02:41:05.224Z,25.27
2017-01-01T02:41:33.341Z,25.34
2017-01-01T02:42:01.612Z,25.38
2017-01-01T02:43:12.805Z,25.33
2017-01-01T02:43:41.094Z,25.34
2017-01-01T02:44:09.255Z,25.28
2017-01-01T02:44:37.556Z,25.3
2017-01-01T02:45:05.686Z,25.27
2017-01-01T02:45:33.826Z,25.23
2017-01-01T02:46:02.021Z,25.3
2017-01-01T02:46:30.177Z,25.28
2017-01-01T02:46:58.216Z,25.16
2017-01-01T02:47:26.331Z,25.18
2017-01-01T02:47:54.691Z,25.12
2017-01-01T02:49:05.782Z,25.27
2017-01-01T02:49:33.918Z,25.19
2017-01-01T02:50:02.264Z,25.12
2017-01-01T02:50:30.563Z,25.23
2017-01-01T02:50:58.695Z,25.15
2017-01-01T02:51:26.868Z,25.06
2017-01-01T02:51:55.065Z,25.21
2017-01-01T02:52:23.219Z,25.21
2017-01-01T02:52:51.350Z,25.18
2017-01-01T02:53:19.372Z,25.15
2017-01-01T02:53:47.546Z,25.19
2017-01-01T02:54:58.735Z,25.26
2017-01-01T02:55:27.024Z,25.3
2017-01-01T02:55:55.179Z,25.28
2017-01-01T02:56:23.380Z,25.33
2017-01-01T02:56:51.414Z,25.3
2017-01-01T02:57:19.647Z,25.33
2017-01-01T02:57:47.840Z,25.34
2017-01-01T02:58:16.089Z,25.38
2017-01-01T02:58:44.313Z,25.4
2017-01-01T02:59:12.428Z,25.4
2017-01-01T02:59:40.600Z,25.41
2017-01-01T03:00:51.813Z,25.48
2017-01-01T03:01:20.105Z,25.43
2017-01-01T03:01:48.356Z,25.41
2017-01-01T03:02:16.468Z,25.46
2017-01-01T03:02:44.697Z,25.36
2017-01-01T03:03:13.021Z,25.38
2017-01-01T03:03:41.215Z,25.34
2017-01-01T03:04:09.469Z,25.33
2017-01-01T03:04:37.599Z,25.27
2017-01-01T03:05:05.817Z,25.33
2017-01-01T03:05:33.995Z,25.28
2017-01-01T03:06:45.277Z,25.33
2017-01-01T03:07:13.568Z,25.28
2017-01-01T03:07:41.823Z,25.33
2017-01-01T03:08:09.937Z,25.33
2017-01-01T03:08:38.077Z,25.33
2017-01-01T03:09:06.119Z,25.34
2017-01-01T03:09:34.228Z,25.4
2017-01-01T03:10:02.570Z,25.36
2017-01-01T03:10:30.706Z,25.41
2017-01-01T03:10:58.917Z,25.4
2017-01-01T03:11:27.186Z,25.38
2017-01-01T03:12:38.379Z,25.4
2017-01-01T03:13:06.581Z,25.36
2017-01-01T03:13:34.839Z,25.46
2017-01-01T03:14:03.043Z,25.4
2017-01-01T03:14:31.363Z,25.49
2017-01-01T03:14:59.506Z,25.59
2017-01-01T03:15:27.796Z,25.58
2017-01-01T03:15:56.144Z,25.46
2017-01-01T03:16:24.464Z,25.56
2017-01-01T03:16:52.677Z,25.48
2017-01-01T03:17:21.037Z,25.58
2017-01-01T03:18:32.419Z,25.56
2017-01-01T03:19:00.430Z,25.52
2017-01-01T03:19:28.785Z,25.55
2017-01-01T03:19:56.894Z,25.58
2017-01-01T03:20:25.032Z,25.58
2017-01-01T03:20:53.266Z,25.4
2017-01-01T03:21:21.560Z,25.55
2017-01-01T03:21:49.728Z,25.56
2017-01-01T03:22:18.042Z,25.56
2017-01-01T03:22:46.357Z,25.4
2017-01-01T03:23:14.628Z,25.36
2017-01-01T03:24:25.910Z,25.36
2017-01-01T03:24:54.199Z,25.46
2017-01-01T03:25:22.552Z,25.41
2017-01-01T03:25:50.663Z,25.38
2017-01-01T03:26:18.796Z,25.45
2017-01-01T03:26:47.124Z,25.4
2017-01-01T03:27:15.505Z,25.48
2017-01-01T03:27:43.854Z,25.43
2017-01-01T03:28:12.082Z,25.45
2017-01-01T03:28:40.292Z,25.41
2017-01-01T03:29:08.653Z,25.43
2017-01-01T03:30:19.928Z,25.59
2017-01-01T03:30:48.218Z,25.58
2017-01-01T03:31:16.379Z,25.56
2017-01-01T03:31:44.485Z,25.59
2017-01-01T03:32:12.712Z,25.55
2017-01-01T03:32:40.942Z,25.56
2017-01-01T03:33:09.228Z,25.56
2017-01-01T03:33:37.481Z,25.53
2017-01-01T03:34:05.534Z,25.56
2017-01-01T03:34:33.743Z,25.56
2017-01-01T03:35:01.914Z,25.55
2017-01-01T03:36:13.008Z,25.64
2017-01-01T03:36:41.200Z,25.59
2017-01-01T03:37:09.448Z,25.61
2017-01-01T03:37:37.650Z,25.58
2017-01-01T03:38:05.802Z,25.58
2017-01-01T03:38:34.033Z,25.56
2017-01-01T03:39:02.226Z,25.59
2017-01-01T03:39:30.383Z,25.58
2017-01-01T03:39:58.515Z,25.56
2017-01-01T03:40:26.635Z,25.55
2017-01-01T03:40:54.996Z,25.64
2017-01-01T03:42:06.282Z,25.55
2017-01-01T03:42:34.572Z,25.59
2017-01-01T03:43:02.831Z,25.55
2017-01-01T03:43:31.039Z,25.55
2017-01-01T03:43:59.355Z,25.66
2017-01-01T03:44:27.585Z,25.59
2017-01-01T03:44:55.873Z,25.59
2017-01-01T03:45:24.223Z,25.68
2017-01-01T03:45:52.542Z,25.64
2017-01-01T03:46:20.751Z,25.7
2017-01-01T03:46:48.837Z,25.66
2017-01-01T03:48:00.025Z,25.64
2017-01-01T03:48:28.125Z,25.67
2017-01-01T03:48:56.282Z,25.66
2017-01-01T03:49:24.109Z,25.63
2017-01-01T03:49:52.426Z,25.64
2017-01-01T03:50:20.469Z,25.64
2017-01-01T03:50:48.848Z,25.53
2017-01-01T03:51:17.095Z,25.56
2017-01-01T03:51:45.132Z,25.55
2017-01-01T03:52:13.247Z,25.55
2017-01-01T03:52:41.352Z,25.52
2017-01-01T03:53:52.353Z,25.63
2017-01-01T03:54:20.640Z,25.59
2017-01-01T03:54:48.706Z,25.56
2017-01-01T03:55:16.720Z,25.66
2017-01-01T03:55:44.755Z,25.66
2017-01-01T03:56:13.074Z,25.63
2017-01-01T03:56:41.175Z,25.67
2017-01-01T03:57:09.238Z,25.58
2017-01-01T03:57:37.458Z,25.63
2017-01-01T03:58:05.483Z,25.59
2017-01-01T03:58:33.669Z,25.66
2017-01-01T03:59:44.860Z,25.56
2017-01-01T04:00:12.961Z,25.56
2017-01-01T04:00:41.222Z,25.53
2017-01-01T04:01:09.413Z,25.59
2017-01-01T04:01:37.444Z,25.55
2017-01-01T04:02:05.582Z,25.56
2017-01-01T04:02:33.772Z,25.58
2017-01-01T04:03:01.830Z,25.61
2017-01-01T04:03:29.866Z,25.55
2017-01-01T04:03:57.889Z,25.51
2017-01-01T04:04:25.876Z,25.53
2017-01-01T04:05:36.976Z,25.49
2017-01-01T04:06:05.164Z,25.4
2017-01-01T04:06:33.320Z,25.46
2017-01-01T04:07:01.340Z,25.46
2017-01-01T04:07:29.475Z,25.43
2017-01-01T04:07:57.701Z,25.37
2017-01-01T04:08:25.803Z,25.45
2017-01-01T04:08:53.866Z,25.38
2017-01-01T04:09:21.999Z,25.38
2017-01-01T04:09:50.308Z,25.33
2017-01-01T04:10:18.571Z,25.28
2017-01-01T04:11:29.764Z,25.27
2017-01-01T04:11:58.146Z,25.28
2017-01-01T04:12:26.399Z,25.31
2017-01-01T04:12:54.515Z,25.22
2017-01-01T04:13:22.649Z,25.27
2017-01-01T04:13:50.878Z,25.27
2017-01-01T04:14:19.166Z,25.31
2017-01-01T04:14:47.327Z,25.28
2017-01-01T04:15:15.552Z,25.31
2017-01-01T04:15:43.866Z,25.28
2017-01-01T04:16:12.133Z,25.22
2017-01-01T04:17:23.511Z,25.3
2017-01-01T04:17:51.891Z,25.23
2017-01-01T04:18:20.049Z,25.21
2017-01-01T04:18:48.155Z,25.21
2017-01-01T04:19:16.292Z,25.15
2017-01-01T04:19:44.531Z,25.19
2017-01-01T04:20:12.635Z,25.19
2017-01-01T04:20:40.790Z,25.09
2017-01-01T04:21:09.038Z,25.14
2017-01-01T04:21:37.345Z,25.16
2017-01-01T04:22:05.611Z,25.12
2017-01-01T04:23:16.707Z,25.12
2017-01-01T04:23:44.991Z,25.04
2017-01-01T04:24:13.344Z,25.03
2017-01-01T04:24:41.457Z,25.04
2017-01-01T04:25:09.682Z,25.08
2017-01-01T04:25:37.912Z,25.08
2017-01-01T04:26:06.202Z,25.06
2017-01-01T04:26:34.456Z,24.97
2017-01-01T04:27:02.776Z,25.08
2017-01-01T04:27:30.893Z,25.09
2017-01-01T04:27:59.258Z,25.11
2017-01-01T04:29:10.542Z,25.08
2017-01-01T04:29:38.736Z,25.16
2017-01-01T04:30:06.987Z,25.11
2017-01-01T04:30:35.100Z,25.14
2017-01-01T04:31:03.327Z,25.06
2017-01-01T04:31:31.378Z,25.16
2017-01-01T04:31:59.482Z,25.19
2017-01-01T04:32:27.639Z,25.14
2017-01-01T04:32:55.961Z,25.21
2017-01-01T04:33:24.174Z,25.14
2017-01-01T04:33:52.343Z,25.22
2017-01-01T04:35:03.527Z,25.26
2017-01-01T04:35:31.715Z,25.28
2017-01-01T04:35:59.690Z,25.27
2017-01-01T04:36:27.897Z,25.23
2017-01-01T04:36:56.119Z,25.28
2017-01-01T04:37:24.347Z,25.27
2017-01-01T04:37:52.635Z,25.27
2017-01-01T04:38:20.700Z,25.28
2017-01-01T04:38:48.833Z,25.33
2017-01-01T04:39:17.041Z,25.3
2017-01-01T04:39:44.938Z,25.3
2017-01-01T04:40:56.123Z,25.34
2017-01-01T04:41:24.314Z,25.28
2017-01-01T04:41:52.663Z,25.31
2017-01-01T04:42:20.771Z,25.33
2017-01-01T04:42:48.906Z,25.3
2017-01-01T04:43:17.042Z,25.19
2017-01-01T04:43:45.337Z,25.27
2017-01-01T04:44:13.592Z,25.19
2017-01-01T04:44:41.720Z,25.28
2017-01-01T04:45:09.935Z,25.16
2017-01-01T04:45:38.198Z,25.21
2017-01-01T04:46:49.295Z,25.22
2017-01-01T04:47:17.581Z,25.19
2017-01-01T04:47:45.744Z,25.15
2017-01-01T04:48:13.949Z,25.21
2017-01-01T04:48:42.176Z,25.27
2017-01-01T04:49:10.406Z,25.23
2017-01-01T04:49:38.701Z,25.21
2017-01-01T04:50:06.952Z,25.19
2017-01-01T04:50:35.269Z,25.28
2017-01-01T04:51:03.574Z,25.27
2017-01-01T04:51:31.745Z,25.31
2017-01-01T04:52:43.035Z,25.27
2017-01-01T04:53:11.226Z,25.28
2017-01-01T04:53:39.574Z,25.31
2017-01-01T04:54:07.600Z,25.3
2017-01-01T04:54:35.920Z,25.28
2017-01-01T04:55:04.152Z,25.28
2017-01-01T04:55:32.433Z,25.28
2017-01-01T04:56:00.681Z,25.33
2017-01-01T04:56:28.721Z,25.23
2017-01-01T04:56:56.842Z,25.26
2017-01-01T04:57:24.921Z,25.26
2017-01-01T04:58:36.017Z,25.23
2017-01-01T04:59:04.211Z,25.18
2017-01-01T04:59:32.277Z,25.27
2017-01-01T05:00:00.382Z,25.27
2017-01-01T05:00:28.518Z,25.19
2017-01-01T05:00:56.744Z,25.18
2017-01-01T05:01:24.940Z,25.28
2017-01-01T05:01:53.097Z,25.23
2017-01-01T05:02:21.122Z,25.3
2017-01-01T05:02:49.224Z,25.3
2017-01-01T05:03:17.357Z,25.21
2017-01-01T05:04:28.561Z,25.21
2017-01-01T05:04:56.637Z,25.18
2017-01-01T05:05:24.765Z,25.15
2017-01-01T05:05:52.878Z,25.11
2017-01-01T05:06:21.198Z,25.19
2017-01-01T05:06:49.212Z,25.22
2017-01-01T05:07:17.220Z,25.16
2017-01-01T05:07:45.365Z,25.11
2017-01-01T05:08:13.572Z,25.12
2017-01-01T05:08:41.583Z,25.14
2017-01-01T05:09:09.622Z,25.03
2017-01-01T05:10:20.910Z,25.12
2017-01-01T05:10:48.895Z,25.08
2017-01-01T05:11:17.120Z,25.04
2017-01-01T05:11:45.231Z,25.04
2017-01-01T05:12:13.362Z,25.09
2017-01-01T05:12:41.378Z,25.15
2017-01-01T05:13:09.662Z,25.11
2017-01-01T05:13:37.902Z,25.09
2017-01-01T05:14:05.924Z,25.01
2017-01-01T05:14:34.118Z,25.08
2017-01-01T05:15:02.251Z,25.09
2017-01-01T05:16:13.453Z,25.11
2017-01-01T05:16:41.707Z,25.15
2017-01-01T05:17:09.841Z,25.12
2017-01-01T05:17:37.953Z,25.06
2017-01-01T05:18:06.086Z,25.06
2017-01-01T05:18:34.199Z,25.16
2017-01-01T05:19:02.491Z,25.16
2017-01-01T05:19:30.825Z,25.21
2017-01-01T05:19:58.852Z,25.21
2017-01-01T05:20:26.963Z,25.21
2017-01-01T05:20:55.281Z,25.19
2017-01-01T05:22:06.389Z,25.22
2017-01-01T05:22:34.658Z,25.19
2017-01-01T05:23:02.789Z,25.18
2017-01-01T05:23:30.901Z,25.16
2017-01-01T05:23:59.128Z,25.16
2017-01-01T05:24:27.051Z,25.14
2017-01-01T05:24:55.341Z,25.18
2017-01-01T05:25:23.581Z,25.18
2017-01-01T05:25:51.612Z,25.09
2017-01-01T05:26:19.628Z,25.06
2017-01-01T05:26:47.667Z,25.09
2017-01-01T05:27:58.952Z,25.12
2017-01-01T05:28:27.115Z,25.15
2017-01-01T05:28:55.340Z,25.12
2017-01-01T05:29:23.453Z,25.18
2017-01-01T05:29:51.594Z,25.22
2017-01-01T05:30:19.702Z,25.18
2017-01-01T05:30:47.903Z,25.27
2017-01-01T05:31:16.232Z,25.12
2017-01-01T05:31:44.352Z,25.18
2017-01-01T05:32:12.553Z,25.09
2017-01-01T05:32:40.778Z,25.06
2017-01-01T05:33:51.971Z,25.14
2017-01-01T05:34:20.228Z,25.21
2017-01-01T05:34:48.359Z,25.11
2017-01-01T05:35:16.563Z,25.23
2017-01-01T05:35:44.700Z,25.14
2017-01-01T05:36:13.003Z,25.21
2017-01-01T05:36:41.290Z,25.06
2017-01-01T05:37:09.436Z,25.03
2017-01-01T05:37:37.473Z,25.06
2017-01-01T05:38:05.665Z,25.09
2017-01-01T05:38:33.798Z,25.08
2017-01-01T05:39:45.180Z,25.01
2017-01-01T05:40:13.257Z,24.9
2017-01-01T05:40:41.578Z,24.99
2017-01-01T05:41:09.785Z,24.97
2017-01-01T05:41:37.823Z,24.91
2017-01-01T05:42:05.843Z,24.89
2017-01-01T05:42:34.133Z,24.89
2017-01-01T05:43:02.284Z,24.9
2017-01-01T05:43:30.317Z,24.79
2017-01-01T05:43:58.323Z,24.86
2017-01-01T05:44:26.366Z,24.84
2017-01-01T05:45:37.654Z,24.81
2017-01-01T05:46:05.730Z,24.79
2017-01-01T05:46:33.956Z,24.74
2017-01-01T05:47:02.161Z,24.74
2017-01-01T05:47:30.198Z,24.78
2017-01-01T05:47:58.399Z,24.75
2017-01-01T05:48:26.598Z,24.79
2017-01-01T05:48:54.746Z,24.68
2017-01-01T05:49:23.054Z,24.65
2017-01-01T05:49:51.251Z,24.65
2017-01-01T05:50:19.569Z,24.62
2017-01-01T05:51:30.759Z,24.53
2017-01-01T05:51:59.023Z,24.55
2017-01-01T05:52:27.248Z,24.58
2017-01-01T05:52:55.368Z,24.52
2017-01-01T05:53:23.409Z,24.48
2017-01-01T05:53:51.424Z,24.53
2017-01-01T05:54:19.715Z,24.53
2017-01-01T05:54:47.764Z,24.58
2017-01-01T05:55:15.888Z,24.43
2017-01-01T05:55:44.174Z,24.43
2017-01-01T05:56:12.493Z,24.44
2017-01-01T05:57:23.873Z,24.43
2017-01-01T05:57:52.043Z,24.44
2017-01-01T05:58:20.365Z,24.45
2017-01-01T05:58:48.573Z,24.4
2017-01-01T05:59:16.799Z,24.45
2017-01-01T05:59:45.000Z,24.43
2017-01-01T06:00:13.195Z,24.44
2017-01-01T06:00:41.428Z,24.53
2017-01-01T06:01:09.646Z,24.56
2017-01-01T06:01:37.740Z,24.53
2017-01-01T06:02:06.061Z,24.53
2017-01-01T06:03:17.254Z,24.59
2017-01-01T06:03:45.424Z,24.45
2017-01-01T06:04:13.645Z,24.41
2017-01-01T06:04:41.868Z,24.38
2017-01-01T06:05:10.000Z,24.4
2017-01-01T06:05:38.205Z,24.33
2017-01-01T06:06:06.307Z,24.43
2017-01-01T06:06:34.455Z,24.34
2017-01-01T06:07:02.764Z,24.37
2017-01-01T06:07:30.862Z,24.38
2017-01-01T06:07:58.993Z,24.4
2017-01-01T06:09:10.277Z,24.43
2017-01-01T06:09:38.540Z,24.43
2017-01-01T06:10:06.856Z,24.4
2017-01-01T06:10:35.069Z,24.4
2017-01-01T06:11:03.201Z,24.37
2017-01-01T06:11:31.406Z,24.36
2017-01-01T06:11:59.788Z,24.37
2017-01-01T06:12:27.838Z,24.41
2017-01-01T06:12:55.863Z,24.38
2017-01-01T06:13:23.876Z,24.41
2017-01-01T06:13:52.009Z,24.36
2017-01-01T06:15:03.294Z,24.36
2017-01-01T06:15:31.461Z,24.36
2017-01-01T06:15:59.685Z,24.25
2017-01-01T06:16:27.704Z,24.28
2017-01-01T06:16:55.837Z,24.25
2017-01-01T06:17:23.941Z,24.33
2017-01-01T06:17:52.229Z,24.28
2017-01-01T06:18:20.374Z,24.25
2017-01-01T06:18:48.491Z,24.25
2017-01-01T06:19:16.594Z,24.29
2017-01-01T06:19:44.728Z,24.28
2017-01-01T06:20:56.021Z,24.33
2017-01-01T06:21:24.093Z,24.25
2017-01-01T06:21:52.221Z,24.23
2017-01-01T06:22:20.520Z,24.25
2017-01-01T06:22:48.756Z,24.23
2017-01-01T06:23:17.050Z,24.26
2017-01-01T06:23:45.339Z,24.26
2017-01-01T06:24:13.296Z,24.28
2017-01-01T06:24:41.603Z,24.21
2017-01-01T06:25:09.882Z,24.16
2017-01-01T06:25:38.104Z,24.23
2017-01-01T06:26:49.485Z,24.16
2017-01-01T06:27:17.656Z,24.22
2017-01-01T06:27:45.976Z,24.21
2017-01-01T06:28:14.180Z,24.21
2017-01-01T06:28:42.307Z,24.22
2017-01-01T06:29:10.514Z,24.22
2017-01-01T06:29:38.708Z,24.13
2017-01-01T06:30:07.042Z,24.25
2017-01-01T06:30:35.258Z,24.13
2017-01-01T06:31:03.367Z,24.23
2017-01-01T06:31:31.502Z,24.23
2017-01-01T06:32:42.791Z,24.29
2017-01-01T06:33:11.051Z,24.25
2017-01-01T06:33:39.183Z,24.21
2017-01-01T06:34:07.298Z,24.22
2017-01-01T06:34:35.524Z,24.25
2017-01-01T06:35:03.633Z,24.18
2017-01-01T06:35:31.834Z,24.23
2017-01-01T06:36:00.100Z,24.19
2017-01-01T06:36:28.134Z,24.22
2017-01-01T06:36:56.236Z,24.11
2017-01-01T06:37:24.371Z,24.13
2017-01-01T06:38:35.559Z,24.11
2017-01-01T06:39:03.823Z,24.07
2017-01-01T06:39:32.048Z,24.11
2017-01-01T06:40:00.351Z,24.13
2017-01-01T06:40:28.483Z,24.04
2017-01-01T06:40:56.593Z,24.1
2017-01-01T06:41:24.788Z,24
2017-01-01T06:41:52.844Z,24.01
2017-01-01T06:42:20.964Z,24.01
2017-01-01T06:42:49.248Z,23.91
2017-01-01T06:43:17.472Z,23.92
2017-01-01T06:44:28.756Z,23.85
2017-01-01T06:44:56.830Z,23.91
2017-01-01T06:45:25.147Z,23.97
2017-01-01T06:45:53.166Z,24.06
2017-01-01T06:46:21.486Z,23.97
2017-01-01T06:46:49.510Z,23.98
2017-01-01T06:47:17.801Z,24.03
2017-01-01T06:47:46.039Z,24.01
2017-01-01T06:48:14.258Z,24.03
2017-01-01T06:48:42.357Z,24.1
2017-01-01T06:49:10.581Z,24.07
2017-01-01T06:50:21.958Z,24.11
2017-01-01T06:50:50.226Z,24.13
2017-01-01T06:51:18.454Z,24.16
2017-01-01T06:51:46.568Z,24.26
2017-01-01T06:52:14.609Z,24.19
2017-01-01T06:52:42.814Z,24.15
2017-01-01T06:53:11.200Z,24.19
2017-01-01T06:53:39.341Z,24.25
2017-01-01T06:54:07.275Z,24.15
2017-01-01T06:54:35.473Z,24.08